Time;durP1;ratioP1;P1;durP2;ratioP2;P2;SDS_P1;SDS_P2;PMS_P1;PMS_P2;Temp;Humidity;BMP_temperature;BMP_pressure;BME280_temperature;BME280_humidity;BME280_pressure;Samples;Min_cycle;Max_cycle;Signal;HPM_P1;HPM_P2
2022/11/14 00:02:41;;;;;;;26.50;16.80;;;5.90;99.90;;;;;;10465272;28;20212;-70
2022/11/14 00:07:42;;;;;;;25.47;17.63;;;5.80;99.90;;;;;;10466565;28;20223;-73
2022/11/14 00:12:42;;;;;;;33.80;19.27;;;5.90;99.90;;;;;;10465998;28;20717;-70
2022/11/14 00:17:46;;;;;;;25.17;19.10;;;6.00;99.90;;;;;;10472288;28;20234;-70
2022/11/14 00:22:46;;;;;;;33.37;19.20;;;6.10;99.90;;;;;;10457224;28;20226;-70
2022/11/14 00:27:47;;;;;;;62.37;19.47;;;6.10;99.90;;;;;;10469008;28;20222;-72
2022/11/14 00:32:47;;;;;;;27.20;18.43;;;6.20;99.90;;;;;;10464666;28;20235;-73
2022/11/14 00:37:48;;;;;;;38.60;19.13;;;6.20;99.90;;;;;;10472399;28;20229;-71
2022/11/14 00:42:49;;;;;;;114.20;19.53;;;6.20;99.90;;;;;;10465577;28;20222;-70
2022/11/14 00:47:49;;;;;;;37.27;18.00;;;6.10;99.90;;;;;;10470369;28;20549;-73
2022/11/14 00:52:50;;;;;;;22.20;16.30;;;6.10;99.90;;;;;;10458037;28;20225;-75
2022/11/14 00:57:54;;;;;;;22.63;16.30;;;6.00;99.90;;;;;;10473373;28;20360;-75
2022/11/14 01:02:55;;;;;;;17.87;15.73;;;5.90;99.90;;;;;;10464076;28;20211;-74
2022/11/14 01:07:56;;;;;;;23.10;16.90;;;5.90;99.90;;;;;;10477648;28;20270;-73
2022/11/14 01:12:56;;;;;;;21.63;16.27;;;5.80;99.90;;;;;;10471899;28;20780;-70
2022/11/14 01:17:57;;;;;;;26.13;17.47;;;5.90;99.90;;;;;;10474605;28;20226;-70
2022/11/14 01:22:57;;;;;;;24.70;16.53;;;5.90;99.90;;;;;;10472534;28;20220;-70
2022/11/14 01:27:59;;;;;;;22.87;17.43;;;6.00;99.90;;;;;;10477968;28;20237;-69
2022/11/14 01:32:59;;;;;;;33.47;17.77;;;6.00;99.90;;;;;;10475506;28;20247;-74
2022/11/14 01:38:00;;;;;;;19.57;15.60;;;6.00;99.90;;;;;;10477692;28;20226;-73
2022/11/14 01:43:16;;;;;;;19.90;15.33;;;5.90;99.90;;;;;;10469335;28;20219;-74
2022/11/14 01:48:40;;;;;;;21.57;15.67;;;5.80;99.90;;;;;;10474442;28;20868;-74
2022/11/14 01:53:43;;;;;;;19.23;16.07;;;5.80;99.90;;;;;;10468598;28;20219;-73
2022/11/14 01:58:48;;;;;;;19.83;15.83;;;5.80;99.90;;;;;;10504070;28;20218;-74
2022/11/14 02:03:51;;;;;;;22.70;16.13;;;5.80;99.90;;;;;;10492293;28;20234;-77
2022/11/14 02:08:54;;;;;;;48.87;16.27;;;5.70;99.90;;;;;;10477496;28;20269;-74
2022/11/14 02:13:54;;;;;;;20.70;15.37;;;5.80;99.90;;;;;;10467847;28;20216;-75
2022/11/14 02:18:55;;;;;;;16.97;15.17;;;5.80;99.90;;;;;;10469679;28;20663;-74
2022/11/14 02:23:55;;;;;;;18.73;14.03;;;5.80;99.90;;;;;;10469056;28;20308;-74
2022/11/14 02:28:56;;;;;;;25.53;16.80;;;5.70;99.90;;;;;;10477534;28;20631;-74
2022/11/14 02:33:57;;;;;;;21.73;15.70;;;5.70;99.90;;;;;;10469859;28;20303;-73
2022/11/14 02:38:57;;;;;;;20.40;15.07;;;5.70;99.90;;;;;;10476943;28;20212;-74
2022/11/14 02:43:58;;;;;;;17.67;14.63;;;5.60;99.90;;;;;;10482306;28;20251;-73
2022/11/14 02:48:58;;;;;;;46.27;14.40;;;5.60;99.90;;;;;;10469513;28;20238;-73
2022/11/14 02:53:59;;;;;;;19.40;14.47;;;5.60;99.90;;;;;;10475836;28;20314;-74
2022/11/14 02:58:59;;;;;;;109.17;15.87;;;5.50;99.90;;;;;;10478687;28;20211;-76
2022/11/14 03:04:00;;;;;;;62.57;14.90;;;5.40;99.90;;;;;;10465511;28;20212;-76
2022/11/14 03:09:01;;;;;;;87.80;14.47;;;5.20;99.90;;;;;;10471510;28;20269;-75
2022/11/14 03:14:01;;;;;;;73.80;15.93;;;5.10;99.90;;;;;;10481300;28;20216;-76
2022/11/14 03:19:02;;;;;;;79.77;15.57;;;4.90;99.90;;;;;;10466362;28;20657;-75
2022/11/14 03:24:03;;;;;;;70.63;14.53;;;4.80;99.90;;;;;;10472997;28;20225;-76
2022/11/14 03:29:03;;;;;;;21.30;15.00;;;4.70;99.90;;;;;;10463293;28;20251;-75
2022/11/14 03:34:04;;;;;;;22.40;14.87;;;4.80;99.90;;;;;;10464547;28;20220;-75
2022/11/14 03:39:04;;;;;;;41.80;16.40;;;4.90;99.90;;;;;;10493534;28;20303;-75
2022/11/14 03:44:05;;;;;;;20.17;13.87;;;5.00;99.90;;;;;;10472143;28;20266;-76
2022/11/14 03:49:06;;;;;;;19.53;13.07;;;5.00;99.90;;;;;;10468350;28;21005;-76
2022/11/14 03:54:06;;;;;;;19.97;13.97;;;5.00;99.90;;;;;;10512042;28;20770;-76
2022/11/14 03:59:07;;;;;;;16.73;12.53;;;5.00;99.90;;;;;;10477368;28;20212;-76
2022/11/14 04:04:12;;;;;;;16.43;13.10;;;5.00;99.90;;;;;;10475072;28;20581;-76
2022/11/14 04:09:13;;;;;;;14.97;12.80;;;5.20;99.90;;;;;;10502398;28;20212;-75
2022/11/14 04:14:13;;;;;;;15.67;13.23;;;5.30;99.90;;;;;;10507741;28;20623;-75
2022/11/14 04:19:18;;;;;;;13.77;12.37;;;5.40;99.90;;;;;;10508190;28;20237;-76
2022/11/14 04:24:18;;;;;;;14.03;12.50;;;5.60;99.90;;;;;;10509132;28;20219;-77
2022/11/14 04:29:19;;;;;;;15.77;13.27;;;5.80;99.90;;;;;;10509307;28;20753;-77
2022/11/14 04:34:20;;;;;;;13.80;12.23;;;5.90;99.90;;;;;;10508900;28;20242;-74
2022/11/14 04:39:21;;;;;;;15.90;11.50;;;5.90;99.90;;;;;;10516162;28;20210;-79
2022/11/14 04:44:21;;;;;;;15.63;11.80;;;6.00;99.90;;;;;;10495410;28;20224;-78
2022/11/14 04:49:22;;;;;;;17.00;12.33;;;5.90;99.90;;;;;;10510361;28;20233;-81
2022/11/14 04:54:23;;;;;;;15.07;12.30;;;5.90;99.90;;;;;;10510036;28;20764;-80
2022/11/14 04:59:23;;;;;;;16.80;12.20;;;5.90;99.90;;;;;;10505697;28;20211;-75
2022/11/14 05:04:24;;;;;;;18.40;12.80;;;5.90;99.90;;;;;;10510272;28;20236;-75
2022/11/14 05:09:24;;;;;;;15.40;11.97;;;5.90;99.90;;;;;;10509044;28;20246;-74
2022/11/14 05:17:29;;;;;;;15.73;11.23;;;5.90;99.90;;;;;;10599693;27;20542;-76
2022/11/14 05:22:30;;;;;;;17.37;12.57;;;5.90;99.90;;;;;;10560754;27;20218;-70
2022/11/14 05:27:30;;;;;;;14.50;11.70;;;6.00;99.90;;;;;;10560530;27;20212;-70
2022/11/14 05:32:31;;;;;;;16.53;12.77;;;5.90;99.90;;;;;;10564356;27;20221;-70
2022/11/14 05:37:33;;;;;;;17.00;12.97;;;6.00;99.90;;;;;;10565072;27;20308;-71
2022/11/14 05:42:34;;;;;;;15.17;12.77;;;6.10;99.90;;;;;;10564296;27;20226;-72
2022/11/14 05:47:34;;;;;;;14.70;12.40;;;6.10;99.90;;;;;;10553432;27;20562;-72
2022/11/14 05:52:35;;;;;;;15.03;12.17;;;6.10;99.90;;;;;;10541652;28;20718;-75
2022/11/14 05:57:35;;;;;;;17.30;13.63;;;6.20;99.90;;;;;;10546462;27;20275;-75
2022/11/14 06:02:36;;;;;;;17.83;13.43;;;6.30;99.90;;;;;;10540519;28;20613;-76
2022/11/14 06:07:37;;;;;;;20.87;15.57;;;6.20;99.90;;;;;;10547690;27;20206;-78
2022/11/14 06:12:38;;;;;;;23.90;16.10;;;6.30;99.90;;;;;;10554751;27;20317;-76
2022/11/14 06:17:39;;;;;;;19.90;15.47;;;6.30;99.90;;;;;;10540212;28;20235;-76
2022/11/14 06:22:40;;;;;;;19.80;14.20;;;6.40;99.90;;;;;;10547095;27;20272;-76
2022/11/14 06:27:41;;;;;;;18.77;13.57;;;6.60;99.90;;;;;;10518091;28;20222;-76
2022/11/14 06:32:41;;;;;;;19.50;14.63;;;6.70;99.90;;;;;;10518582;28;20243;-77
2022/11/14 06:37:42;;;;;;;21.67;15.20;;;6.70;99.90;;;;;;10512435;28;20211;-77
2022/11/14 06:42:42;;;;;;;21.17;15.80;;;6.80;99.90;;;;;;10518735;28;20234;-77
2022/11/14 06:47:43;;;;;;;22.63;16.23;;;6.80;99.90;;;;;;10517573;28;20223;-77
2022/11/14 06:52:43;;;;;;;25.03;17.40;;;6.90;99.90;;;;;;10510205;28;20234;-76
2022/11/14 06:57:44;;;;;;;24.67;17.70;;;6.90;99.90;;;;;;10517942;28;20694;-77
2022/11/14 07:02:45;;;;;;;25.70;16.27;;;7.00;99.90;;;;;;10508896;28;20207;-77
2022/11/14 07:07:46;;;;;;;27.00;18.03;;;7.00;99.90;;;;;;10517731;28;20219;-77
2022/11/14 07:12:46;;;;;;;25.83;17.87;;;7.00;99.90;;;;;;10517417;28;20231;-77
2022/11/14 07:17:47;;;;;;;26.67;17.73;;;7.00;99.90;;;;;;10513079;28;20226;-77
2022/11/14 07:22:48;;;;;;;24.47;17.57;;;7.00;99.90;;;;;;10517934;28;20219;-77
2022/11/14 07:27:48;;;;;;;28.43;18.07;;;7.00;99.90;;;;;;10519333;28;20210;-76
2022/11/14 07:32:58;;;;;;;26.30;17.70;;;7.00;99.90;;;;;;10516737;28;20214;-76
2022/11/14 07:38:03;;;;;;;23.70;17.57;;;7.20;99.90;;;;;;10518989;28;20254;-77
2022/11/14 07:43:03;;;;;;;24.23;17.07;;;7.20;99.90;;;;;;10519992;28;20821;-76
2022/11/14 07:48:04;;;;;;;20.87;16.63;;;7.20;99.90;;;;;;10519457;28;20306;-76
2022/11/14 07:53:05;;;;;;;22.47;17.07;;;7.20;99.90;;;;;;10515305;28;20257;-77
2022/11/14 07:58:05;;;;;;;21.27;16.17;;;7.20;99.90;;;;;;10515096;28;20215;-77
2022/11/14 08:03:07;;;;;;;23.80;16.17;;;7.40;99.90;;;;;;10508748;28;20348;-78
2022/11/14 08:08:10;;;;;;;25.30;16.77;;;7.40;99.90;;;;;;10511805;28;20225;-77
2022/11/14 08:13:11;;;;;;;23.37;16.90;;;7.50;99.90;;;;;;10510695;28;20241;-77
2022/11/14 08:18:12;;;;;;;24.83;17.33;;;7.40;99.90;;;;;;10518452;28;20222;-77
2022/11/14 08:23:18;;;;;;;26.20;17.67;;;7.50;99.90;;;;;;10509544;28;20317;-77
2022/11/14 08:28:19;;;;;;;21.73;17.03;;;7.50;99.90;;;;;;10505986;28;20298;-77
2022/11/14 08:33:19;;;;;;;21.57;15.90;;;7.70;99.90;;;;;;10509399;28;20313;-77
2022/11/14 08:38:20;;;;;;;20.83;15.07;;;7.90;99.90;;;;;;10510591;28;20274;-78
2022/11/14 08:43:21;;;;;;;16.80;14.03;;;9.60;99.90;;;;;;10510221;28;20322;-76
2022/11/14 08:48:21;;;;;;;18.23;13.60;;;11.00;99.90;;;;;;10511065;28;20222;-79
2022/11/14 08:53:22;;;;;;;15.90;12.87;;;12.50;99.90;;;;;;10507801;28;20820;-76
2022/11/14 08:58:22;;;;;;;14.93;12.30;;;11.90;99.90;;;;;;10510481;28;20684;-77
2022/11/14 09:03:23;;;;;;;14.40;12.17;;;11.50;99.90;;;;;;10517376;28;20222;-77
2022/11/14 09:08:23;;;;;;;13.30;10.90;;;13.60;99.90;;;;;;10509606;28;20225;-77
2022/11/14 09:13:26;;;;;;;12.10;10.53;;;14.30;99.90;;;;;;10506241;28;20225;-77
2022/11/14 09:18:26;;;;;;;12.87;10.97;;;12.70;99.90;;;;;;10508737;28;20222;-78
2022/11/14 09:23:27;;;;;;;12.87;10.03;;;11.90;99.90;;;;;;10513138;28;20610;-77
2022/11/14 09:28:27;;;;;;;11.53;10.33;;;14.20;99.90;;;;;;10510391;28;20638;-77
2022/11/14 09:33:28;;;;;;;10.83;9.73;;;16.40;99.90;;;;;;10519495;28;20681;-77
2022/11/14 09:38:29;;;;;;;12.57;10.40;;;17.90;99.90;;;;;;10511745;28;20284;-77
2022/11/14 09:43:37;;;;;;;11.60;10.30;;;16.00;99.90;;;;;;10519293;28;20294;-77
2022/11/14 09:48:38;;;;;;;12.00;9.63;;;15.70;99.90;;;;;;10512542;28;20211;-78
2022/11/14 09:54:02;;;;;;;10.60;8.73;;;16.70;99.90;;;;;;10548732;28;20226;-78
2022/11/14 09:59:07;;;;;;;10.13;8.57;;;17.80;99.50;;;;;;10537183;28;20218;-78
2022/11/14 10:04:33;;;;;;;10.63;8.93;;;17.80;97.90;;;;;;10514832;28;20627;-76
2022/11/14 10:09:46;;;;;;;10.63;9.37;;;15.60;99.90;;;;;;10514119;28;20215;-78
2022/11/14 10:14:55;;;;;;;9.60;8.60;;;13.80;99.90;;;;;;10552931;27;20307;-77
2022/11/14 10:20:10;;;;;;;10.97;8.50;;;12.60;99.90;;;;;;10545706;27;20222;-76
2022/11/14 10:25:25;;;;;;;9.10;7.73;;;12.10;99.90;;;;;;10519074;28;20222;-77
2022/11/14 10:30:36;;;;;;;12.23;8.80;;;11.70;99.90;;;;;;10517157;28;20215;-76
2022/11/14 10:35:44;;;;;;;9.97;8.30;;;11.50;99.90;;;;;;10512536;28;20237;-76
2022/11/14 10:40:52;;;;;;;9.53;8.47;;;11.70;99.90;;;;;;10518920;28;20217;-78
2022/11/14 10:46:23;;;;;;;9.90;8.30;;;11.70;99.90;;;;;;10544098;27;20219;-77
2022/11/14 10:51:41;;;;;;;10.40;8.00;;;11.70;99.90;;;;;;10543037;27;20235;-76
2022/11/14 10:56:49;;;;;;;11.07;8.80;;;11.70;99.90;;;;;;10510567;28;20237;-77
2022/11/14 11:01:51;;;;;;;9.93;7.93;;;11.50;99.90;;;;;;10510445;28;20221;-76
2022/11/14 11:11:28;;;;;;;8.80;7.77;;;11.30;99.90;;;;;;10551664;27;20282;-76
2022/11/14 11:12:44;;;;;;;10.37;8.40;;;11.40;99.90;;;;;;10514388;28;20748;-77
2022/11/14 11:18:00;;;;;;;10.60;8.17;;;11.70;99.90;;;;;;10543272;27;20283;-76
2022/11/14 11:23:06;;;;;;;11.33;8.23;;;11.70;99.90;;;;;;10512477;28;20225;-77
2022/11/14 11:28:19;;;;;;;9.00;7.50;;;11.70;99.90;;;;;;10556270;27;20356;-76
2022/11/14 11:33:19;;;;;;;9.70;7.80;;;11.80;99.90;;;;;;10557791;27;20244;-77
2022/11/14 11:38:22;;;;;;;16.00;7.13;;;12.00;99.90;;;;;;10519220;28;20225;-76
2022/11/14 11:43:51;;;;;;;12.30;6.17;;;12.20;99.90;;;;;;10518511;28;20382;-76
2022/11/14 11:49:01;;;;;;;6.10;4.93;;;12.30;99.90;;;;;;10518896;28;20274;-77
2022/11/14 11:54:12;;;;;;;8.00;5.83;;;12.50;99.90;;;;;;10550194;27;20261;-76
2022/11/14 11:59:36;;;;;;;6.87;5.50;;;12.70;99.90;;;;;;10547618;27;20222;-77
2022/11/14 12:04:37;;;;;;;9.30;6.13;;;13.20;99.90;;;;;;10517472;28;20256;-76
2022/11/14 12:09:39;;;;;;;6.40;5.10;;;13.20;99.90;;;;;;10549836;27;20307;-76
2022/11/14 12:15:20;;;;;;;8.30;5.63;;;13.10;99.90;;;;;;10549037;27;20214;-77
2022/11/14 12:21:00;;;;;;;6.47;5.47;;;12.90;99.90;;;;;;10511672;28;20217;-76
2022/11/14 12:26:41;;;;;;;7.23;6.37;;;12.80;99.90;;;;;;10509853;28;20650;-76
2022/11/14 12:31:43;;;;;;;5.97;5.23;;;12.60;99.90;;;;;;10516691;28;20266;-76
2022/11/14 12:36:45;;;;;;;7.60;6.20;;;12.30;99.90;;;;;;10540963;27;20226;-75
2022/11/14 12:41:45;;;;;;;7.83;6.00;;;12.10;99.90;;;;;;10555760;27;20218;-77
2022/11/14 12:47:04;;;;;;;7.33;6.53;;;12.00;99.90;;;;;;10540546;27;20225;-75
2022/11/14 12:52:39;;;;;;;8.43;6.40;;;11.90;99.90;;;;;;10509240;28;20320;-75
2022/11/14 12:58:02;;;;;;;8.77;7.23;;;11.80;99.90;;;;;;10507776;28;20233;-75
2022/11/14 13:03:18;;;;;;;8.23;6.83;;;11.70;99.90;;;;;;10509201;28;20293;-75
2022/11/14 13:08:21;;;;;;;13.97;8.63;;;11.70;99.90;;;;;;10511145;28;20702;-75
2022/11/14 13:24:57;;;;;;;9.57;7.60;;;11.80;99.90;;;;;;10524316;28;20201;-76
2022/11/14 13:30:03;;;;;;;10.57;7.60;;;11.80;99.90;;;;;;10515523;28;20227;-76
2022/11/14 13:35:10;;;;;;;12.90;8.60;;;11.80;99.90;;;;;;10547331;28;20308;-76
2022/11/14 13:40:36;;;;;;;13.47;9.17;;;11.90;99.90;;;;;;10517939;28;20280;-75
2022/11/14 13:45:58;;;;;;;12.23;6.97;;;11.90;99.90;;;;;;10549457;27;20208;-75
2022/11/14 13:51:05;;;;;;;12.57;7.67;;;12.00;99.90;;;;;;10516004;28;20264;-76
2022/11/14 13:56:24;;;;;;;14.67;8.30;;;12.00;99.90;;;;;;10527987;28;20225;-76
2022/11/14 14:01:28;;;;;;;8.57;7.10;;;11.80;99.90;;;;;;10551823;27;20583;-76
2022/11/14 14:06:38;;;;;;;7.43;6.20;;;11.70;99.90;;;;;;10554762;27;20222;-75
2022/11/14 14:12:16;;;;;;;10.00;7.03;;;11.60;99.90;;;;;;10546567;27;20226;-76
2022/11/14 14:17:37;;;;;;;11.73;7.10;;;11.70;99.90;;;;;;10549441;27;20269;-75
2022/11/14 14:23:00;;;;;;;11.90;8.20;;;11.70;99.90;;;;;;10545102;27;20282;-76
2022/11/14 14:28:27;;;;;;;9.70;6.90;;;11.70;99.90;;;;;;10514104;28;20221;-75
2022/11/14 14:33:41;;;;;;;9.20;6.70;;;11.60;99.90;;;;;;10515275;28;20275;-76
2022/11/14 14:38:41;;;;;;;7.83;6.47;;;11.50;99.90;;;;;;10552874;27;20248;-76
2022/11/14 14:43:50;;;;;;;9.13;6.90;;;11.50;99.90;;;;;;10520623;28;20256;-74
2022/11/14 14:48:50;;;;;;;10.07;6.37;;;11.50;99.90;;;;;;10511751;28;20271;-75
2022/11/14 14:53:52;;;;;;;10.93;6.80;;;11.40;99.90;;;;;;10519460;28;20226;-75
2022/11/14 14:58:53;;;;;;;11.07;6.03;;;11.30;99.90;;;;;;10544912;27;20215;-76
2022/11/14 15:04:02;;;;;;;7.97;5.67;;;11.30;99.90;;;;;;10517624;28;20263;-75
2022/11/14 15:09:24;;;;;;;7.60;6.03;;;11.20;99.90;;;;;;10512687;28;20225;-76
2022/11/14 15:14:28;;;;;;;8.60;5.90;;;11.10;99.90;;;;;;10518424;28;20230;-76
2022/11/14 15:19:43;;;;;;;10.27;6.47;;;11.10;99.90;;;;;;10513058;28;20218;-75
2022/11/14 15:24:43;;;;;;;10.83;6.03;;;11.00;99.90;;;;;;10517258;28;20230;-75
2022/11/14 15:29:51;;;;;;;11.23;6.60;;;10.80;99.90;;;;;;10558166;27;20217;-75
2022/11/14 15:35:23;;;;;;;9.80;6.37;;;10.80;99.90;;;;;;10515530;28;20222;-76
2022/11/14 15:40:23;;;;;;;8.60;6.70;;;10.70;99.90;;;;;;10515269;28;20549;-75
2022/11/14 15:45:37;;;;;;;7.40;6.40;;;10.60;99.90;;;;;;10512451;28;20222;-76
2022/11/14 15:50:39;;;;;;;8.20;6.33;;;10.40;99.90;;;;;;10517091;28;20298;-76
2022/11/14 15:55:39;;;;;;;8.60;6.13;;;10.30;99.90;;;;;;10512870;28;20310;-76
2022/11/14 16:00:49;;;;;;;7.97;6.10;;;10.30;99.90;;;;;;10516870;28;20760;-76
2022/11/14 16:05:49;;;;;;;9.73;7.20;;;10.20;99.90;;;;;;10541599;27;20606;-76
2022/11/14 16:10:50;;;;;;;8.57;6.20;;;10.20;99.90;;;;;;10516477;28;20214;-76
2022/11/14 16:15:50;;;;;;;11.40;7.60;;;10.10;99.90;;;;;;10548448;27;20628;-76
2022/11/14 16:20:51;;;;;;;9.53;6.10;;;10.00;99.90;;;;;;10507849;28;20306;-76
2022/11/14 16:25:51;;;;;;;9.87;6.60;;;10.00;99.90;;;;;;10515558;28;20296;-76
2022/11/14 16:30:52;;;;;;;8.30;5.80;;;10.10;99.90;;;;;;10523344;28;20222;-76
2022/11/14 16:35:52;;;;;;;9.90;5.67;;;10.30;99.90;;;;;;10547401;27;20226;-77
2022/11/14 16:40:53;;;;;;;7.57;5.10;;;10.50;99.90;;;;;;10548359;27;20228;-76
2022/11/14 16:45:54;;;;;;;7.63;5.13;;;10.70;99.90;;;;;;10540003;27;20719;-77
2022/11/14 16:50:54;;;;;;;11.00;5.10;;;10.80;99.90;;;;;;10515095;28;20245;-75
2022/11/14 16:55:58;;;;;;;6.87;4.77;;;10.90;99.90;;;;;;10540740;27;20237;-76
2022/11/14 17:00:58;;;;;;;7.80;4.70;;;11.00;99.90;;;;;;10513647;28;20229;-76
2022/11/14 17:05:59;;;;;;;4.93;4.43;;;11.20;99.90;;;;;;10507985;28;20216;-77
2022/11/14 17:11:00;;;;;;;8.50;5.20;;;11.20;99.90;;;;;;10513604;28;20225;-77
2022/11/14 17:16:02;;;;;;;6.60;4.70;;;11.30;99.90;;;;;;10508624;28;20341;-77
2022/11/14 17:21:07;;;;;;;7.97;4.80;;;11.50;99.90;;;;;;10547374;28;20308;-76
2022/11/14 17:26:10;;;;;;;8.87;5.13;;;11.50;99.90;;;;;;10519634;28;20315;-76
2022/11/14 17:31:10;;;;;;;9.43;6.30;;;11.50;99.90;;;;;;10544383;28;20210;-76
2022/11/14 17:36:11;;;;;;;7.20;5.40;;;11.60;99.90;;;;;;10520661;28;20222;-76
2022/11/14 17:41:15;;;;;;;10.43;5.50;;;11.60;99.90;;;;;;10522407;28;20296;-76
2022/11/14 17:46:15;;;;;;;6.40;4.60;;;11.60;99.90;;;;;;10523029;28;20216;-76
2022/11/14 17:51:16;;;;;;;7.63;4.53;;;11.60;99.90;;;;;;10510408;28;20219;-76
2022/11/14 17:56:19;;;;;;;7.07;5.13;;;11.60;99.90;;;;;;10505209;28;20753;-76
2022/11/14 18:01:22;;;;;;;7.13;5.13;;;11.70;99.90;;;;;;10509632;28;20354;-76
2022/11/14 18:06:24;;;;;;;8.70;5.03;;;11.70;99.90;;;;;;10541417;28;20241;-76
2022/11/14 18:11:24;;;;;;;6.07;4.87;;;11.70;99.90;;;;;;10543001;28;20262;-77
2022/11/14 18:16:25;;;;;;;7.53;5.00;;;11.70;99.90;;;;;;10538062;28;20698;-76
2022/11/14 18:21:26;;;;;;;5.83;4.87;;;11.70;99.90;;;;;;10516722;28;20225;-76
2022/11/14 18:26:27;;;;;;;5.77;4.50;;;11.80;99.90;;;;;;10515756;28;20308;-76
2022/11/14 18:31:29;;;;;;;6.43;4.93;;;11.80;99.90;;;;;;10550994;27;20224;-77
2022/11/14 18:36:30;;;;;;;7.67;5.33;;;11.70;99.90;;;;;;10515507;28;20237;-77
2022/11/14 18:41:30;;;;;;;7.27;4.67;;;11.70;99.90;;;;;;10526826;28;20244;-76
2022/11/14 18:46:31;;;;;;;6.57;4.30;;;11.80;99.90;;;;;;10552370;27;20286;-75
2022/11/14 18:51:40;;;;;;;7.60;4.27;;;11.80;99.90;;;;;;10550279;27;20218;-77
2022/11/14 18:56:41;;;;;;;6.77;4.90;;;11.80;99.90;;;;;;10516789;28;20539;-76
2022/11/14 19:01:42;;;;;;;9.10;4.60;;;12.00;99.90;;;;;;10534368;28;20217;-76
2022/11/14 19:06:42;;;;;;;6.20;4.73;;;12.00;99.90;;;;;;10533419;28;20210;-76
2022/11/14 19:17:03;;;;;;;5.13;4.40;;;12.00;99.90;;;;;;10518386;28;20233;-77
2022/11/14 19:22:04;;;;;;;4.97;4.17;;;12.10;99.90;;;;;;10518246;28;20213;-77
2022/11/14 19:27:04;;;;;;;5.07;4.30;;;12.10;99.90;;;;;;10516492;28;20213;-77
2022/11/14 19:32:06;;;;;;;8.13;5.17;;;12.00;99.90;;;;;;10519508;28;20772;-76
2022/11/14 19:37:06;;;;;;;7.30;4.67;;;12.00;99.90;;;;;;10515669;28;20232;-77
2022/11/14 19:42:10;;;;;;;6.43;4.87;;;12.00;99.90;;;;;;10528134;28;20218;-75
2022/11/14 19:47:10;;;;;;;6.33;4.23;;;12.00;99.90;;;;;;10525067;28;20220;-74
2022/11/14 19:52:11;;;;;;;8.37;4.67;;;11.90;99.90;;;;;;10533190;28;20233;-75
2022/11/14 19:57:11;;;;;;;6.43;4.17;;;11.90;99.90;;;;;;10532757;28;20218;-75
2022/11/14 20:02:13;;;;;;;6.40;4.30;;;12.00;99.90;;;;;;10530407;28;20700;-75
2022/11/14 20:07:13;;;;;;;7.70;4.83;;;12.00;99.90;;;;;;10556815;27;20296;-74
2022/11/14 20:12:14;;;;;;;6.23;3.90;;;12.00;99.90;;;;;;10530302;28;20303;-74
2022/11/14 20:17:14;;;;;;;6.73;3.67;;;12.00;99.90;;;;;;10530315;28;20591;-74
2022/11/14 20:22:16;;;;;;;8.33;4.20;;;11.90;99.90;;;;;;10520621;28;20226;-76
2022/11/14 20:27:17;;;;;;;7.20;4.13;;;11.80;99.90;;;;;;10509358;28;20312;-75
2022/11/14 20:32:17;;;;;;;6.40;4.00;;;11.80;99.90;;;;;;10505639;28;20811;-73
2022/11/14 20:37:19;;;;;;;5.93;4.20;;;11.80;99.90;;;;;;10543454;27;20229;-76
2022/11/14 20:42:20;;;;;;;5.83;4.27;;;11.80;99.90;;;;;;10547503;27;20245;-75
2022/11/14 20:47:21;;;;;;;5.60;3.93;;;11.80;99.90;;;;;;10519169;28;20227;-73
2022/11/14 20:52:22;;;;;;;8.20;4.50;;;11.70;99.90;;;;;;10512673;28;20586;-73
2022/11/14 20:57:22;;;;;;;5.87;4.40;;;11.80;99.90;;;;;;10513472;28;20314;-74
2022/11/14 21:02:23;;;;;;;5.70;4.40;;;11.80;99.90;;;;;;10509407;28;20657;-74
2022/11/14 21:07:23;;;;;;;5.13;4.07;;;11.80;99.90;;;;;;10510494;28;20265;-75
2022/11/14 21:12:24;;;;;;;6.67;4.10;;;11.80;99.90;;;;;;10541774;27;20712;-74
2022/11/14 21:17:24;;;;;;;8.87;4.20;;;11.90;99.90;;;;;;10552075;27;20599;-75
2022/11/14 21:22:25;;;;;;;6.87;4.10;;;11.90;99.90;;;;;;10509125;28;20222;-74
2022/11/14 21:27:26;;;;;;;8.17;4.10;;;12.00;99.90;;;;;;10510289;28;20434;-76
2022/11/14 21:32:27;;;;;;;5.53;4.03;;;12.00;99.90;;;;;;10508676;28;20598;-75
2022/11/14 21:37:28;;;;;;;7.97;3.73;;;12.00;99.90;;;;;;10510098;28;20229;-74
2022/11/14 21:42:28;;;;;;;6.13;4.03;;;12.10;99.90;;;;;;10547591;28;20221;-74
2022/11/14 21:47:29;;;;;;;6.17;3.80;;;12.10;99.90;;;;;;10550412;28;20217;-74
2022/11/14 21:52:31;;;;;;;6.63;3.50;;;12.10;99.90;;;;;;10520683;28;20685;-72
2022/11/14 21:57:31;;;;;;;4.40;3.90;;;12.20;99.90;;;;;;10530992;28;20225;-74
2022/11/14 22:07:50;;;;;;;5.27;3.60;;;12.20;99.90;;;;;;10532342;28;20229;-74
2022/11/14 22:12:51;;;;;;;4.27;3.67;;;12.10;99.90;;;;;;10534735;28;20365;-76
2022/11/14 22:17:53;;;;;;;4.17;3.60;;;12.00;99.90;;;;;;10563798;27;20240;-77
2022/11/14 22:22:54;;;;;;;5.40;3.97;;;11.90;99.90;;;;;;10564063;27;20244;-80
2022/11/14 22:27:54;;;;;;;6.00;3.87;;;11.80;99.90;;;;;;10553516;27;20226;-78
2022/11/14 22:32:57;;;;;;;5.40;3.87;;;11.90;99.90;;;;;;10545323;27;20218;-79
2022/11/14 22:37:58;;;;;;;5.43;3.63;;;11.90;99.90;;;;;;10520107;28;20279;-80
2022/11/14 22:43:00;;;;;;;6.07;3.90;;;11.90;99.90;;;;;;10553190;27;20222;-77
2022/11/14 22:48:00;;;;;;;5.23;3.70;;;12.00;99.90;;;;;;10522534;28;20237;-77
2022/11/14 22:53:01;;;;;;;5.37;3.70;;;12.10;99.90;;;;;;10519382;28;20213;-78
2022/11/14 22:58:02;;;;;;;7.20;3.80;;;12.20;99.90;;;;;;10545473;27;20326;-79
2022/11/14 23:03:03;;;;;;;4.63;3.60;;;12.30;99.90;;;;;;10518101;28;20282;-79
2022/11/14 23:08:04;;;;;;;5.43;3.67;;;12.30;99.90;;;;;;10552208;27;20221;-81
2022/11/14 23:13:08;;;;;;;6.17;3.47;;;12.30;99.90;;;;;;10519159;28;20221;-78
2022/11/14 23:18:08;;;;;;;4.23;3.47;;;12.30;99.90;;;;;;10554835;27;20233;-78
2022/11/14 23:23:09;;;;;;;6.47;3.80;;;12.30;99.90;;;;;;10513902;28;20273;-78
2022/11/14 23:28:10;;;;;;;7.47;3.47;;;12.30;99.90;;;;;;10548475;27;20386;-79
2022/11/14 23:33:10;;;;;;;7.43;3.60;;;12.30;99.90;;;;;;10520175;28;20263;-77
2022/11/14 23:38:12;;;;;;;6.27;3.33;;;12.30;99.90;;;;;;10522447;28;20312;-79
2022/11/14 23:43:13;;;;;;;6.43;3.43;;;12.30;99.90;;;;;;10551350;27;20219;-80
2022/11/14 23:48:18;;;;;;;3.63;3.07;;;12.20;99.90;;;;;;10520562;28;20642;-77
2022/11/14 23:53:19;;;;;;;4.80;3.27;;;12.30;99.90;;;;;;10520634;28;20217;-80
2022/11/14 23:58:21;;;;;;;4.37;3.17;;;12.20;99.90;;;;;;10510577;28;20214;-78
